sensor_id;sensor_type;location;lat;lon;timestamp;P1;durP1;ratioP1;P2;durP2;ratioP2
60292;SDS011;52402;52.670;6.750;2023-06-22T00:00:49;0.20;;;0.20;;
60292;SDS011;52402;52.670;6.750;2023-06-22T00:03:15;0.20;;;0.20;;
60292;SDS011;52402;52.670;6.750;2023-06-22T00:05:42;0.20;;;0.20;;
60292;SDS011;52402;52.670;6.750;2023-06-22T00:08:08;0.30;;;0.30;;
60292;SDS011;52402;52.670;6.750;2023-06-22T00:10:33;0.20;;;0.20;;
60292;SDS011;52402;52.670;6.750;2023-06-22T00:12:59;0.20;;;0.20;;
60292;SDS011;52402;52.670;6.750;2023-06-22T00:15:25;0.20;;;0.20;;
60292;SDS011;52402;52.670;6.750;2023-06-22T00:17:51;0.20;;;0.20;;
60292;SDS011;52402;52.670;6.750;2023-06-22T00:20:16;0.20;;;0.20;;
60292;SDS011;52402;52.670;6.750;2023-06-22T00:22:45;0.30;;;0.30;;
60292;SDS011;52402;52.670;6.750;2023-06-22T00:25:11;0.20;;;0.20;;
60292;SDS011;52402;52.670;6.750;2023-06-22T00:27:36;0.20;;;0.20;;
60292;SDS011;52402;52.670;6.750;2023-06-22T00:30:02;0.20;;;0.20;;
60292;SDS011;52402;52.670;6.750;2023-06-22T00:32:29;0.20;;;0.20;;
60292;SDS011;52402;52.670;6.750;2023-06-22T00:34:54;0.20;;;0.20;;
60292;SDS011;52402;52.670;6.750;2023-06-22T00:37:20;0.30;;;0.30;;
60292;SDS011;52402;52.670;6.750;2023-06-22T00:39:50;0.20;;;0.20;;
60292;SDS011;52402;52.670;6.750;2023-06-22T00:42:17;0.30;;;0.30;;
60292;SDS011;52402;52.670;6.750;2023-06-22T00:44:43;0.20;;;0.20;;
60292;SDS011;52402;52.670;6.750;2023-06-22T00:47:10;0.20;;;0.20;;
60292;SDS011;52402;52.670;6.750;2023-06-22T00:49:37;0.20;;;0.20;;
60292;SDS011;52402;52.670;6.750;2023-06-22T00:52:03;0.28;;;0.28;;
60292;SDS011;52402;52.670;6.750;2023-06-22T00:54:34;0.22;;;0.22;;
60292;SDS011;52402;52.670;6.750;2023-06-22T00:57:01;0.20;;;0.20;;
60292;SDS011;52402;52.670;6.750;2023-06-22T00:59:27;0.30;;;0.30;;
60292;SDS011;52402;52.670;6.750;2023-06-22T01:01:52;0.20;;;0.20;;
60292;SDS011;52402;52.670;6.750;2023-06-22T01:04:18;0.28;;;0.28;;
60292;SDS011;52402;52.670;6.750;2023-06-22T01:07:31;0.20;;;0.20;;
60292;SDS011;52402;52.670;6.750;2023-06-22T01:09:41;0.20;;;0.20;;
60292;SDS011;52402;52.670;6.750;2023-06-22T01:12:30;0.20;;;0.20;;
60292;SDS011;52402;52.670;6.750;2023-06-22T01:15:03;0.20;;;0.20;;
60292;SDS011;52402;52.670;6.750;2023-06-22T01:17:34;0.20;;;0.20;;
60292;SDS011;52402;52.670;6.750;2023-06-22T01:20:01;0.20;;;0.20;;
60292;SDS011;52402;52.670;6.750;2023-06-22T01:22:33;0.20;;;0.20;;
60292;SDS011;52402;52.670;6.750;2023-06-22T01:25:26;0.30;;;0.30;;
60292;SDS011;52402;52.670;6.750;2023-06-22T01:30:49;0.30;;;0.30;;
60292;SDS011;52402;52.670;6.750;2023-06-22T01:33:28;0.30;;;0.30;;
60292;SDS011;52402;52.670;6.750;2023-06-22T01:35:56;0.20;;;0.20;;
60292;SDS011;52402;52.670;6.750;2023-06-22T01:38:21;0.20;;;0.20;;
60292;SDS011;52402;52.670;6.750;2023-06-22T01:40:48;0.20;;;0.20;;
60292;SDS011;52402;52.670;6.750;2023-06-22T01:43:14;0.20;;;0.20;;
60292;SDS011;52402;52.670;6.750;2023-06-22T01:45:41;0.30;;;0.30;;
60292;SDS011;52402;52.670;6.750;2023-06-22T01:48:07;0.20;;;0.20;;
60292;SDS011;52402;52.670;6.750;2023-06-22T01:50:33;0.20;;;0.20;;
60292;SDS011;52402;52.670;6.750;2023-06-22T01:52:59;0.20;;;0.20;;
60292;SDS011;52402;52.670;6.750;2023-06-22T01:55:25;0.20;;;0.20;;
60292;SDS011;52402;52.670;6.750;2023-06-22T01:57:50;0.20;;;0.20;;
60292;SDS011;52402;52.670;6.750;2023-06-22T02:00:20;0.30;;;0.30;;
60292;SDS011;52402;52.670;6.750;2023-06-22T02:02:53;0.30;;;0.30;;
60292;SDS011;52402;52.670;6.750;2023-06-22T02:05:24;0.22;;;0.22;;
60292;SDS011;52402;52.670;6.750;2023-06-22T02:10:32;0.30;;;0.30;;
60292;SDS011;52402;52.670;6.750;2023-06-22T02:13:01;0.22;;;0.22;;
60292;SDS011;52402;52.670;6.750;2023-06-22T02:17:57;0.20;;;0.20;;
60292;SDS011;52402;52.670;6.750;2023-06-22T02:20:23;0.30;;;0.30;;
60292;SDS011;52402;52.670;6.750;2023-06-22T02:22:49;0.20;;;0.20;;
60292;SDS011;52402;52.670;6.750;2023-06-22T02:25:15;0.20;;;0.20;;
60292;SDS011;52402;52.670;6.750;2023-06-22T02:27:41;0.20;;;0.20;;
60292;SDS011;52402;52.670;6.750;2023-06-22T02:30:07;0.20;;;0.20;;
60292;SDS011;52402;52.670;6.750;2023-06-22T02:32:34;0.20;;;0.20;;
60292;SDS011;52402;52.670;6.750;2023-06-22T02:35:01;0.20;;;0.20;;
60292;SDS011;52402;52.670;6.750;2023-06-22T02:37:29;0.20;;;0.20;;
60292;SDS011;52402;52.670;6.750;2023-06-22T02:39:56;0.30;;;0.30;;
60292;SDS011;52402;52.670;6.750;2023-06-22T02:42:22;0.20;;;0.20;;
60292;SDS011;52402;52.670;6.750;2023-06-22T02:44:48;0.20;;;0.20;;
60292;SDS011;52402;52.670;6.750;2023-06-22T02:47:14;0.20;;;0.20;;
60292;SDS011;52402;52.670;6.750;2023-06-22T02:49:40;0.30;;;0.30;;
60292;SDS011;52402;52.670;6.750;2023-06-22T02:52:07;0.20;;;0.20;;
60292;SDS011;52402;52.670;6.750;2023-06-22T02:54:32;0.20;;;0.20;;
60292;SDS011;52402;52.670;6.750;2023-06-22T02:56:59;0.30;;;0.30;;
60292;SDS011;52402;52.670;6.750;2023-06-22T02:59:28;0.30;;;0.30;;
60292;SDS011;52402;52.670;6.750;2023-06-22T03:01:54;0.20;;;0.20;;
60292;SDS011;52402;52.670;6.750;2023-06-22T03:04:20;0.20;;;0.20;;
60292;SDS011;52402;52.670;6.750;2023-06-22T03:06:46;0.20;;;0.20;;
60292;SDS011;52402;52.670;6.750;2023-06-22T03:09:16;0.30;;;0.30;;
60292;SDS011;52402;52.670;6.750;2023-06-22T03:11:42;0.20;;;0.20;;
60292;SDS011;52402;52.670;6.750;2023-06-22T03:14:08;0.30;;;0.30;;
60292;SDS011;52402;52.670;6.750;2023-06-22T03:16:33;0.20;;;0.20;;
60292;SDS011;52402;52.670;6.750;2023-06-22T03:18:59;0.20;;;0.20;;
60292;SDS011;52402;52.670;6.750;2023-06-22T03:21:27;0.30;;;0.30;;
60292;SDS011;52402;52.670;6.750;2023-06-22T03:23:53;0.20;;;0.20;;
60292;SDS011;52402;52.670;6.750;2023-06-22T03:26:19;0.20;;;0.20;;
60292;SDS011;52402;52.670;6.750;2023-06-22T03:28:45;0.20;;;0.20;;
60292;SDS011;52402;52.670;6.750;2023-06-22T03:31:12;0.20;;;0.20;;
60292;SDS011;52402;52.670;6.750;2023-06-22T03:33:37;0.20;;;0.20;;
60292;SDS011;52402;52.670;6.750;2023-06-22T03:36:03;0.30;;;0.30;;
60292;SDS011;52402;52.670;6.750;2023-06-22T03:38:29;0.20;;;0.20;;
60292;SDS011;52402;52.670;6.750;2023-06-22T03:40:55;0.20;;;0.20;;
60292;SDS011;52402;52.670;6.750;2023-06-22T03:43:20;0.30;;;0.30;;
60292;SDS011;52402;52.670;6.750;2023-06-22T03:45:46;0.20;;;0.20;;
60292;SDS011;52402;52.670;6.750;2023-06-22T03:48:12;0.20;;;0.20;;
60292;SDS011;52402;52.670;6.750;2023-06-22T03:50:38;0.30;;;0.30;;
60292;SDS011;52402;52.670;6.750;2023-06-22T03:53:04;0.20;;;0.20;;
60292;SDS011;52402;52.670;6.750;2023-06-22T03:55:29;0.22;;;0.22;;
60292;SDS011;52402;52.670;6.750;2023-06-22T03:57:55;0.20;;;0.20;;
60292;SDS011;52402;52.670;6.750;2023-06-22T04:00:25;0.30;;;0.30;;
60292;SDS011;52402;52.670;6.750;2023-06-22T04:02:51;0.25;;;0.25;;
60292;SDS011;52402;52.670;6.750;2023-06-22T04:05:16;0.25;;;0.25;;
60292;SDS011;52402;52.670;6.750;2023-06-22T04:07:45;0.20;;;0.20;;
60292;SDS011;52402;52.670;6.750;2023-06-22T04:10:10;0.30;;;0.30;;
60292;SDS011;52402;52.670;6.750;2023-06-22T04:12:36;0.30;;;0.30;;
60292;SDS011;52402;52.670;6.750;2023-06-22T04:15:02;0.30;;;0.30;;
60292;SDS011;52402;52.670;6.750;2023-06-22T04:17:28;0.20;;;0.20;;
60292;SDS011;52402;52.670;6.750;2023-06-22T04:19:54;0.20;;;0.20;;
60292;SDS011;52402;52.670;6.750;2023-06-22T04:22:19;0.20;;;0.20;;
60292;SDS011;52402;52.670;6.750;2023-06-22T04:24:45;0.20;;;0.20;;
60292;SDS011;52402;52.670;6.750;2023-06-22T04:27:13;0.20;;;0.20;;
60292;SDS011;52402;52.670;6.750;2023-06-22T04:29:40;0.30;;;0.30;;
60292;SDS011;52402;52.670;6.750;2023-06-22T04:32:16;0.20;;;0.20;;
60292;SDS011;52402;52.670;6.750;2023-06-22T04:34:42;0.28;;;0.28;;
60292;SDS011;52402;52.670;6.750;2023-06-22T04:37:08;0.30;;;0.30;;
60292;SDS011;52402;52.670;6.750;2023-06-22T04:39:34;0.22;;;0.22;;
60292;SDS011;52402;52.670;6.750;2023-06-22T04:42:01;0.20;;;0.20;;
60292;SDS011;52402;52.670;6.750;2023-06-22T04:44:27;0.20;;;0.20;;
60292;SDS011;52402;52.670;6.750;2023-06-22T04:46:56;0.30;;;0.30;;
60292;SDS011;52402;52.670;6.750;2023-06-22T04:49:28;0.20;;;0.20;;
60292;SDS011;52402;52.670;6.750;2023-06-22T04:52:05;0.20;;;0.20;;
60292;SDS011;52402;52.670;6.750;2023-06-22T04:54:32;0.30;;;0.30;;
60292;SDS011;52402;52.670;6.750;2023-06-22T04:57:02;0.20;;;0.20;;
60292;SDS011;52402;52.670;6.750;2023-06-22T04:59:30;0.20;;;0.20;;
60292;SDS011;52402;52.670;6.750;2023-06-22T05:01:57;0.25;;;0.25;;
60292;SDS011;52402;52.670;6.750;2023-06-22T05:04:24;0.20;;;0.20;;
60292;SDS011;52402;52.670;6.750;2023-06-22T05:06:52;0.22;;;0.22;;
60292;SDS011;52402;52.670;6.750;2023-06-22T05:09:19;0.30;;;0.30;;
60292;SDS011;52402;52.670;6.750;2023-06-22T05:11:50;0.30;;;0.30;;
60292;SDS011;52402;52.670;6.750;2023-06-22T05:17:48;0.20;;;0.20;;
60292;SDS011;52402;52.670;6.750;2023-06-22T05:20:14;0.20;;;0.20;;
60292;SDS011;52402;52.670;6.750;2023-06-22T05:22:43;0.20;;;0.20;;
60292;SDS011;52402;52.670;6.750;2023-06-22T05:28:56;0.30;;;0.30;;
60292;SDS011;52402;52.670;6.750;2023-06-22T05:31:22;0.30;;;0.30;;
60292;SDS011;52402;52.670;6.750;2023-06-22T05:33:51;0.20;;;0.20;;
60292;SDS011;52402;52.670;6.750;2023-06-22T05:36:17;0.20;;;0.20;;
60292;SDS011;52402;52.670;6.750;2023-06-22T05:38:46;0.20;;;0.20;;
60292;SDS011;52402;52.670;6.750;2023-06-22T05:41:12;0.20;;;0.20;;
60292;SDS011;52402;52.670;6.750;2023-06-22T05:43:39;0.25;;;0.25;;
60292;SDS011;52402;52.670;6.750;2023-06-22T05:46:05;0.30;;;0.30;;
60292;SDS011;52402;52.670;6.750;2023-06-22T05:48:31;0.20;;;0.20;;
60292;SDS011;52402;52.670;6.750;2023-06-22T05:50:57;0.30;;;0.30;;
60292;SDS011;52402;52.670;6.750;2023-06-22T05:53:23;0.30;;;0.30;;
60292;SDS011;52402;52.670;6.750;2023-06-22T05:55:49;0.22;;;0.22;;
60292;SDS011;52402;52.670;6.750;2023-06-22T05:58:15;0.20;;;0.20;;
60292;SDS011;52402;52.670;6.750;2023-06-22T06:00:41;0.30;;;0.30;;
60292;SDS011;52402;52.670;6.750;2023-06-22T06:03:08;0.30;;;0.30;;
60292;SDS011;52402;52.670;6.750;2023-06-22T06:05:35;0.20;;;0.20;;
60292;SDS011;52402;52.670;6.750;2023-06-22T06:08:02;0.20;;;0.20;;
60292;SDS011;52402;52.670;6.750;2023-06-22T06:10:30;0.30;;;0.30;;
60292;SDS011;52402;52.670;6.750;2023-06-22T06:12:59;0.30;;;0.30;;
60292;SDS011;52402;52.670;6.750;2023-06-22T06:15:29;0.30;;;0.30;;
60292;SDS011;52402;52.670;6.750;2023-06-22T06:17:56;0.30;;;0.30;;
60292;SDS011;52402;52.670;6.750;2023-06-22T06:20:22;0.30;;;0.30;;
60292;SDS011;52402;52.670;6.750;2023-06-22T06:22:49;0.30;;;0.30;;
60292;SDS011;52402;52.670;6.750;2023-06-22T06:25:15;0.30;;;0.30;;
60292;SDS011;52402;52.670;6.750;2023-06-22T06:27:42;0.30;;;0.30;;
60292;SDS011;52402;52.670;6.750;2023-06-22T06:30:09;0.30;;;0.30;;
60292;SDS011;52402;52.670;6.750;2023-06-22T06:32:36;0.25;;;0.25;;
60292;SDS011;52402;52.670;6.750;2023-06-22T06:35:02;0.30;;;0.30;;
60292;SDS011;52402;52.670;6.750;2023-06-22T06:37:28;0.30;;;0.30;;
60292;SDS011;52402;52.670;6.750;2023-06-22T06:39:53;0.30;;;0.30;;
60292;SDS011;52402;52.670;6.750;2023-06-22T06:42:19;0.25;;;0.25;;
60292;SDS011;52402;52.670;6.750;2023-06-22T06:44:47;0.30;;;0.30;;
60292;SDS011;52402;52.670;6.750;2023-06-22T06:47:13;0.30;;;0.30;;
60292;SDS011;52402;52.670;6.750;2023-06-22T06:49:39;0.20;;;0.20;;
60292;SDS011;52402;52.670;6.750;2023-06-22T06:52:05;0.30;;;0.30;;
60292;SDS011;52402;52.670;6.750;2023-06-22T06:54:31;0.30;;;0.30;;
60292;SDS011;52402;52.670;6.750;2023-06-22T06:56:57;0.20;;;0.20;;
60292;SDS011;52402;52.670;6.750;2023-06-22T06:59:23;0.30;;;0.30;;
60292;SDS011;52402;52.670;6.750;2023-06-22T07:01:49;0.25;;;0.25;;
60292;SDS011;52402;52.670;6.750;2023-06-22T07:04:14;0.30;;;0.30;;
60292;SDS011;52402;52.670;6.750;2023-06-22T07:06:40;0.28;;;0.28;;
60292;SDS011;52402;52.670;6.750;2023-06-22T07:09:09;0.30;;;0.30;;
60292;SDS011;52402;52.670;6.750;2023-06-22T07:11:35;0.30;;;0.30;;
60292;SDS011;52402;52.670;6.750;2023-06-22T07:14:01;0.30;;;0.30;;
60292;SDS011;52402;52.670;6.750;2023-06-22T07:16:27;0.20;;;0.20;;
60292;SDS011;52402;52.670;6.750;2023-06-22T07:18:53;0.32;;;0.32;;
60292;SDS011;52402;52.670;6.750;2023-06-22T07:21:19;0.30;;;0.30;;
60292;SDS011;52402;52.670;6.750;2023-06-22T07:23:45;0.30;;;0.30;;
60292;SDS011;52402;52.670;6.750;2023-06-22T07:26:10;0.32;;;0.32;;
60292;SDS011;52402;52.670;6.750;2023-06-22T07:28:37;0.38;;;0.38;;
60292;SDS011;52402;52.670;6.750;2023-06-22T07:31:05;0.30;;;0.30;;
60292;SDS011;52402;52.670;6.750;2023-06-22T07:33:31;0.30;;;0.30;;
60292;SDS011;52402;52.670;6.750;2023-06-22T07:35:57;0.22;;;0.22;;
60292;SDS011;52402;52.670;6.750;2023-06-22T07:38:23;0.30;;;0.30;;
60292;SDS011;52402;52.670;6.750;2023-06-22T07:40:48;0.30;;;0.30;;
60292;SDS011;52402;52.670;6.750;2023-06-22T07:43:15;0.30;;;0.30;;
60292;SDS011;52402;52.670;6.750;2023-06-22T07:45:44;0.35;;;0.35;;
60292;SDS011;52402;52.670;6.750;2023-06-22T07:48:17;0.30;;;0.30;;
60292;SDS011;52402;52.670;6.750;2023-06-22T07:50:44;0.40;;;0.40;;
60292;SDS011;52402;52.670;6.750;2023-06-22T07:53:20;0.30;;;0.30;;
60292;SDS011;52402;52.670;6.750;2023-06-22T07:55:47;0.30;;;0.30;;
60292;SDS011;52402;52.670;6.750;2023-06-22T07:58:12;0.30;;;0.30;;
60292;SDS011;52402;52.670;6.750;2023-06-22T08:00:38;0.40;;;0.40;;
60292;SDS011;52402;52.670;6.750;2023-06-22T08:03:04;0.40;;;0.40;;
60292;SDS011;52402;52.670;6.750;2023-06-22T08:05:30;0.30;;;0.30;;
60292;SDS011;52402;52.670;6.750;2023-06-22T08:07:56;0.30;;;0.30;;
60292;SDS011;52402;52.670;6.750;2023-06-22T08:10:22;0.30;;;0.30;;
60292;SDS011;52402;52.670;6.750;2023-06-22T08:12:48;0.30;;;0.30;;
60292;SDS011;52402;52.670;6.750;2023-06-22T08:15:14;0.30;;;0.30;;
60292;SDS011;52402;52.670;6.750;2023-06-22T08:17:40;0.32;;;0.32;;
60292;SDS011;52402;52.670;6.750;2023-06-22T08:20:06;0.30;;;0.30;;
60292;SDS011;52402;52.670;6.750;2023-06-22T08:22:37;0.30;;;0.30;;
60292;SDS011;52402;52.670;6.750;2023-06-22T08:25:03;0.30;;;0.30;;
60292;SDS011;52402;52.670;6.750;2023-06-22T08:27:29;0.30;;;0.30;;
60292;SDS011;52402;52.670;6.750;2023-06-22T08:29:59;0.30;;;0.30;;
60292;SDS011;52402;52.670;6.750;2023-06-22T08:32:28;0.30;;;0.30;;
60292;SDS011;52402;52.670;6.750;2023-06-22T08:34:54;0.40;;;0.40;;
60292;SDS011;52402;52.670;6.750;2023-06-22T08:37:20;0.30;;;0.30;;
60292;SDS011;52402;52.670;6.750;2023-06-22T08:39:48;0.40;;;0.40;;
60292;SDS011;52402;52.670;6.750;2023-06-22T08:42:15;0.30;;;0.30;;
60292;SDS011;52402;52.670;6.750;2023-06-22T08:44:40;0.30;;;0.30;;
60292;SDS011;52402;52.670;6.750;2023-06-22T08:47:06;0.40;;;0.40;;
60292;SDS011;52402;52.670;6.750;2023-06-22T08:49:32;0.30;;;0.30;;
60292;SDS011;52402;52.670;6.750;2023-06-22T08:51:57;0.30;;;0.30;;
60292;SDS011;52402;52.670;6.750;2023-06-22T08:54:37;0.30;;;0.30;;
60292;SDS011;52402;52.670;6.750;2023-06-22T08:57:02;0.30;;;0.30;;
60292;SDS011;52402;52.670;6.750;2023-06-22T08:59:28;0.40;;;0.40;;
60292;SDS011;52402;52.670;6.750;2023-06-22T09:01:54;0.30;;;0.30;;
60292;SDS011;52402;52.670;6.750;2023-06-22T09:04:20;0.30;;;0.30;;
60292;SDS011;52402;52.670;6.750;2023-06-22T09:06:48;0.30;;;0.30;;
60292;SDS011;52402;52.670;6.750;2023-06-22T09:09:15;0.30;;;0.30;;
60292;SDS011;52402;52.670;6.750;2023-06-22T09:11:41;0.30;;;0.30;;
60292;SDS011;52402;52.670;6.750;2023-06-22T09:14:08;0.30;;;0.30;;
60292;SDS011;52402;52.670;6.750;2023-06-22T09:16:34;0.30;;;0.30;;
60292;SDS011;52402;52.670;6.750;2023-06-22T09:19:00;0.30;;;0.30;;
60292;SDS011;52402;52.670;6.750;2023-06-22T09:21:25;0.30;;;0.30;;
60292;SDS011;52402;52.670;6.750;2023-06-22T09:23:51;0.30;;;0.30;;
60292;SDS011;52402;52.670;6.750;2023-06-22T09:26:17;0.30;;;0.30;;
60292;SDS011;52402;52.670;6.750;2023-06-22T09:28:43;0.30;;;0.30;;
60292;SDS011;52402;52.670;6.750;2023-06-22T09:31:09;0.30;;;0.30;;
60292;SDS011;52402;52.670;6.750;2023-06-22T09:33:39;0.30;;;0.30;;
60292;SDS011;52402;52.670;6.750;2023-06-22T09:36:05;0.30;;;0.30;;
60292;SDS011;52402;52.670;6.750;2023-06-22T09:38:37;0.30;;;0.30;;
60292;SDS011;52402;52.670;6.750;2023-06-22T09:41:03;0.35;;;0.35;;
60292;SDS011;52402;52.670;6.750;2023-06-22T09:43:30;0.30;;;0.30;;
60292;SDS011;52402;52.670;6.750;2023-06-22T09:45:56;0.30;;;0.30;;
60292;SDS011;52402;52.670;6.750;2023-06-22T09:48:22;0.30;;;0.30;;
60292;SDS011;52402;52.670;6.750;2023-06-22T09:50:48;0.35;;;0.35;;
60292;SDS011;52402;52.670;6.750;2023-06-22T09:53:14;0.40;;;0.40;;
60292;SDS011;52402;52.670;6.750;2023-06-22T09:55:40;0.30;;;0.30;;
60292;SDS011;52402;52.670;6.750;2023-06-22T09:58:06;0.35;;;0.35;;
60292;SDS011;52402;52.670;6.750;2023-06-22T10:00:31;0.30;;;0.30;;
60292;SDS011;52402;52.670;6.750;2023-06-22T10:02:57;0.30;;;0.30;;
60292;SDS011;52402;52.670;6.750;2023-06-22T10:05:23;0.30;;;0.30;;
60292;SDS011;52402;52.670;6.750;2023-06-22T10:07:49;0.30;;;0.30;;
60292;SDS011;52402;52.670;6.750;2023-06-22T10:10:18;0.40;;;0.40;;
60292;SDS011;52402;52.670;6.750;2023-06-22T10:12:45;0.40;;;0.40;;
60292;SDS011;52402;52.670;6.750;2023-06-22T10:15:12;0.30;;;0.30;;
60292;SDS011;52402;52.670;6.750;2023-06-22T10:17:38;0.30;;;0.30;;
60292;SDS011;52402;52.670;6.750;2023-06-22T10:20:05;0.30;;;0.30;;
60292;SDS011;52402;52.670;6.750;2023-06-22T10:22:42;0.40;;;0.40;;
60292;SDS011;52402;52.670;6.750;2023-06-22T10:25:10;0.40;;;0.40;;
60292;SDS011;52402;52.670;6.750;2023-06-22T10:27:36;0.40;;;0.40;;
60292;SDS011;52402;52.670;6.750;2023-06-22T10:30:05;0.40;;;0.40;;
60292;SDS011;52402;52.670;6.750;2023-06-22T10:32:32;0.40;;;0.40;;
60292;SDS011;52402;52.670;6.750;2023-06-22T10:34:58;0.40;;;0.40;;
60292;SDS011;52402;52.670;6.750;2023-06-22T10:37:24;0.40;;;0.40;;
60292;SDS011;52402;52.670;6.750;2023-06-22T10:39:52;0.40;;;0.40;;
60292;SDS011;52402;52.670;6.750;2023-06-22T10:42:21;0.30;;;0.30;;
60292;SDS011;52402;52.670;6.750;2023-06-22T10:44:46;0.40;;;0.40;;
60292;SDS011;52402;52.670;6.750;2023-06-22T10:47:12;0.40;;;0.40;;
60292;SDS011;52402;52.670;6.750;2023-06-22T10:49:38;0.40;;;0.40;;
60292;SDS011;52402;52.670;6.750;2023-06-22T10:52:08;0.40;;;0.40;;
60292;SDS011;52402;52.670;6.750;2023-06-22T10:54:34;0.47;;;0.47;;
60292;SDS011;52402;52.670;6.750;2023-06-22T10:57:01;0.40;;;0.40;;
60292;SDS011;52402;52.670;6.750;2023-06-22T10:59:30;0.40;;;0.40;;
60292;SDS011;52402;52.670;6.750;2023-06-22T11:01:59;0.40;;;0.40;;
60292;SDS011;52402;52.670;6.750;2023-06-22T11:04:25;0.40;;;0.40;;
60292;SDS011;52402;52.670;6.750;2023-06-22T11:06:51;0.40;;;0.40;;
60292;SDS011;52402;52.670;6.750;2023-06-22T11:09:17;0.40;;;0.40;;
60292;SDS011;52402;52.670;6.750;2023-06-22T11:14:13;0.50;;;0.50;;
60292;SDS011;52402;52.670;6.750;2023-06-22T11:24:12;0.30;;;0.30;;
60292;SDS011;52402;52.670;6.750;2023-06-22T11:26:38;0.40;;;0.40;;
60292;SDS011;52402;52.670;6.750;2023-06-22T11:29:12;0.40;;;0.40;;
60292;SDS011;52402;52.670;6.750;2023-06-22T11:31:38;0.40;;;0.40;;
60292;SDS011;52402;52.670;6.750;2023-06-22T11:34:04;0.40;;;0.40;;
60292;SDS011;52402;52.670;6.750;2023-06-22T11:36:31;0.40;;;0.40;;
60292;SDS011;52402;52.670;6.750;2023-06-22T11:38:58;0.40;;;0.40;;
60292;SDS011;52402;52.670;6.750;2023-06-22T11:41:26;0.40;;;0.40;;
60292;SDS011;52402;52.670;6.750;2023-06-22T11:43:52;0.40;;;0.40;;
60292;SDS011;52402;52.670;6.750;2023-06-22T11:46:17;0.40;;;0.40;;
60292;SDS011;52402;52.670;6.750;2023-06-22T11:48:43;0.30;;;0.30;;
60292;SDS011;52402;52.670;6.750;2023-06-22T11:51:09;0.32;;;0.32;;
60292;SDS011;52402;52.670;6.750;2023-06-22T11:53:35;0.40;;;0.40;;
60292;SDS011;52402;52.670;6.750;2023-06-22T11:56:01;0.40;;;0.40;;
60292;SDS011;52402;52.670;6.750;2023-06-22T11:58:27;0.40;;;0.40;;
60292;SDS011;52402;52.670;6.750;2023-06-22T12:00:54;0.30;;;0.30;;
60292;SDS011;52402;52.670;6.750;2023-06-22T12:03:19;0.40;;;0.40;;
60292;SDS011;52402;52.670;6.750;2023-06-22T12:05:49;0.40;;;0.40;;
60292;SDS011;52402;52.670;6.750;2023-06-22T12:08:16;0.40;;;0.40;;
60292;SDS011;52402;52.670;6.750;2023-06-22T12:10:41;0.40;;;0.40;;
60292;SDS011;52402;52.670;6.750;2023-06-22T12:13:07;0.40;;;0.40;;
60292;SDS011;52402;52.670;6.750;2023-06-22T12:15:33;0.40;;;0.40;;
60292;SDS011;52402;52.670;6.750;2023-06-22T12:17:59;0.40;;;0.40;;
60292;SDS011;52402;52.670;6.750;2023-06-22T12:20:26;0.40;;;0.40;;
60292;SDS011;52402;52.670;6.750;2023-06-22T12:22:51;0.40;;;0.40;;
60292;SDS011;52402;52.670;6.750;2023-06-22T12:25:19;0.40;;;0.40;;
60292;SDS011;52402;52.670;6.750;2023-06-22T12:27:44;0.40;;;0.40;;
60292;SDS011;52402;52.670;6.750;2023-06-22T12:30:10;0.40;;;0.40;;
60292;SDS011;52402;52.670;6.750;2023-06-22T12:32:38;0.30;;;0.30;;
60292;SDS011;52402;52.670;6.750;2023-06-22T12:35:04;0.40;;;0.40;;
60292;SDS011;52402;52.670;6.750;2023-06-22T12:37:30;0.40;;;0.40;;
60292;SDS011;52402;52.670;6.750;2023-06-22T12:39:56;0.35;;;0.35;;
60292;SDS011;52402;52.670;6.750;2023-06-22T12:42:22;0.40;;;0.40;;
60292;SDS011;52402;52.670;6.750;2023-06-22T12:44:48;0.30;;;0.30;;
60292;SDS011;52402;52.670;6.750;2023-06-22T12:47:13;0.50;;;0.50;;
60292;SDS011;52402;52.670;6.750;2023-06-22T12:49:39;0.40;;;0.40;;
60292;SDS011;52402;52.670;6.750;2023-06-22T12:52:08;0.40;;;0.40;;
60292;SDS011;52402;52.670;6.750;2023-06-22T12:54:38;0.40;;;0.40;;
60292;SDS011;52402;52.670;6.750;2023-06-22T12:57:07;0.40;;;0.40;;
60292;SDS011;52402;52.670;6.750;2023-06-22T12:59:32;0.40;;;0.40;;
60292;SDS011;52402;52.670;6.750;2023-06-22T13:01:58;0.40;;;0.40;;
60292;SDS011;52402;52.670;6.750;2023-06-22T13:04:24;0.40;;;0.40;;
60292;SDS011;52402;52.670;6.750;2023-06-22T13:06:50;0.30;;;0.30;;
60292;SDS011;52402;52.670;6.750;2023-06-22T13:09:17;0.35;;;0.35;;
60292;SDS011;52402;52.670;6.750;2023-06-22T13:11:43;0.30;;;0.30;;
60292;SDS011;52402;52.670;6.750;2023-06-22T13:14:09;0.40;;;0.40;;
60292;SDS011;52402;52.670;6.750;2023-06-22T13:16:35;0.40;;;0.40;;
60292;SDS011;52402;52.670;6.750;2023-06-22T13:19:00;0.35;;;0.35;;
60292;SDS011;52402;52.670;6.750;2023-06-22T13:21:26;0.40;;;0.40;;
60292;SDS011;52402;52.670;6.750;2023-06-22T13:23:52;0.40;;;0.40;;
60292;SDS011;52402;52.670;6.750;2023-06-22T13:26:18;0.30;;;0.30;;
60292;SDS011;52402;52.670;6.750;2023-06-22T13:28:43;0.40;;;0.40;;
60292;SDS011;52402;52.670;6.750;2023-06-22T13:31:09;0.30;;;0.30;;
60292;SDS011;52402;52.670;6.750;2023-06-22T13:33:35;0.30;;;0.30;;
60292;SDS011;52402;52.670;6.750;2023-06-22T13:36:02;0.40;;;0.40;;
60292;SDS011;52402;52.670;6.750;2023-06-22T13:38:28;0.40;;;0.40;;
60292;SDS011;52402;52.670;6.750;2023-06-22T13:40:55;0.40;;;0.40;;
60292;SDS011;52402;52.670;6.750;2023-06-22T13:43:23;0.40;;;0.40;;
60292;SDS011;52402;52.670;6.750;2023-06-22T13:45:49;0.40;;;0.40;;
60292;SDS011;52402;52.670;6.750;2023-06-22T13:48:15;0.40;;;0.40;;
60292;SDS011;52402;52.670;6.750;2023-06-22T13:50:40;0.40;;;0.40;;
60292;SDS011;52402;52.670;6.750;2023-06-22T13:53:07;0.38;;;0.38;;
60292;SDS011;52402;52.670;6.750;2023-06-22T13:55:33;0.40;;;0.40;;
60292;SDS011;52402;52.670;6.750;2023-06-22T13:57:58;0.40;;;0.40;;
60292;SDS011;52402;52.670;6.750;2023-06-22T14:00:24;0.30;;;0.30;;
60292;SDS011;52402;52.670;6.750;2023-06-22T14:02:50;0.40;;;0.40;;
60292;SDS011;52402;52.670;6.750;2023-06-22T14:05:16;0.40;;;0.40;;
60292;SDS011;52402;52.670;6.750;2023-06-22T14:07:42;0.30;;;0.30;;
60292;SDS011;52402;52.670;6.750;2023-06-22T14:10:11;0.40;;;0.40;;
60292;SDS011;52402;52.670;6.750;2023-06-22T14:12:36;0.30;;;0.30;;
60292;SDS011;52402;52.670;6.750;2023-06-22T14:15:03;0.40;;;0.40;;
60292;SDS011;52402;52.670;6.750;2023-06-22T14:17:29;0.30;;;0.30;;
60292;SDS011;52402;52.670;6.750;2023-06-22T14:19:54;0.30;;;0.30;;
60292;SDS011;52402;52.670;6.750;2023-06-22T14:22:21;0.30;;;0.30;;
60292;SDS011;52402;52.670;6.750;2023-06-22T14:24:47;0.35;;;0.35;;
60292;SDS011;52402;52.670;6.750;2023-06-22T14:27:13;0.40;;;0.40;;
60292;SDS011;52402;52.670;6.750;2023-06-22T14:29:39;0.30;;;0.30;;
60292;SDS011;52402;52.670;6.750;2023-06-22T14:32:05;0.40;;;0.40;;
60292;SDS011;52402;52.670;6.750;2023-06-22T14:34:32;0.40;;;0.40;;
60292;SDS011;52402;52.670;6.750;2023-06-22T14:36:58;0.30;;;0.30;;
60292;SDS011;52402;52.670;6.750;2023-06-22T14:39:23;0.30;;;0.30;;
60292;SDS011;52402;52.670;6.750;2023-06-22T14:41:49;0.30;;;0.30;;
60292;SDS011;52402;52.670;6.750;2023-06-22T14:44:15;0.30;;;0.30;;
60292;SDS011;52402;52.670;6.750;2023-06-22T14:46:42;0.30;;;0.30;;
60292;SDS011;52402;52.670;6.750;2023-06-22T14:49:07;0.30;;;0.30;;
60292;SDS011;52402;52.670;6.750;2023-06-22T14:51:33;0.30;;;0.30;;
60292;SDS011;52402;52.670;6.750;2023-06-22T14:53:59;0.30;;;0.30;;
60292;SDS011;52402;52.670;6.750;2023-06-22T14:56:25;0.40;;;0.40;;
60292;SDS011;52402;52.670;6.750;2023-06-22T14:58:51;0.30;;;0.30;;
60292;SDS011;52402;52.670;6.750;2023-06-22T15:01:17;0.30;;;0.30;;
60292;SDS011;52402;52.670;6.750;2023-06-22T15:03:43;0.30;;;0.30;;
60292;SDS011;52402;52.670;6.750;2023-06-22T15:06:09;0.32;;;0.32;;
60292;SDS011;52402;52.670;6.750;2023-06-22T15:08:37;0.40;;;0.40;;
60292;SDS011;52402;52.670;6.750;2023-06-22T15:11:03;0.30;;;0.30;;